Terminal Aerodrome Forecast
Issued by NWS Albany, NY

Home | Current Version | Previous Version | Text Only | Print | Product List | Glossary On
Versions: 1 2 3 4 5 6 7 8 9 10 11 12 13 14 15
861
FTUS41 KALY 231727
TAFPOU
TAF
KPOU 231727Z 2318/2418 35006KT P6SM FEW250
     FM232300 00000KT P6SM FEW250
     FM240700 00000KT 5SM BR FEW003
     FM241300 34004KT P6SM SKC=

USA.gov is the U.S. government's official web portal to all federal, state and local government web resources and services.